Pagrindinis puslapis
METAR-TAF:

METAR-TAF

Oro uostai :

Gorgan, Iranas

platuma: 36-49N, ilguma: 054-28E, Aukštis: 155 m

Dabartinis oras

Ataskaita buvo paskelbta 26 minutes, ne 04:00 UTC
Vėjas 4 kt iš Pietryčių
Temperatūra 8°C
Drėgmė 93%
Slėgis 1027 hPa
Matomumas 10 km arba daugiau
nėra debesų žemiau 1500 m ir nėra kamuolinių lietaus debesų

METAR: OING 130400Z 13004KT CAVOK 08/07 Q1027

Laikas: 07:56 (04:26 UTC)


TAF: trūkstamas

Orai ataskaitas ir orų prognozės (METAR, TAF).

turimą stotys yra geltonos ir raudonos taškus žemėlapyje.

Perkelti pele per norėdami pamatyti stoties vardą.

Tada spustelėkite, norėdami matyti oro stebėjimo ir prognozės.

Norėdami pakeisti žemėlapį: spustelėkite ant žalios mygtukų su juodo kryžiaus žemyn,; žalią mygtuką su brūkšneliu, jei norite nutolinti; arba žalių rodyklių gretimoms žemėlapius.


METAR-TAF: